Terminal Aerodrome Forecast
Issued by NWS Albuquerque, NM

Home | Current Version | Previous Version | Text Only | Print | Product List | Glossary On
Versions: 1 2 3 4 5 6 7 8 9 10 11 12 13
783
FTUS45 KABQ 281127
TAFABQ
TAF
KABQ 281127Z 2812/2912 35008KT P6SM -SHRA BKN080
     FM281400 31012KT P6SM -SHRA OVC050
     FM281800 32014G22KT P6SM SHRA OVC040
     FM282200 30012KT P6SM VCSH SCT040 SCT070
     FM290100 30012G20KT P6SM -SHRA OVC030=

USA.gov is the U.S. government's official web portal to all federal, state and local government web resources and services.